This is the latest recevied weather packets stored in our database for station/object SP9INZ-13. If no packets are shown the sender has not sent any weather packets the latest 10 day(s).
| Time | Temp. | Humidity | Pressure | Rain* | Wind** | Luminosity | Snow |
|---|---|---|---|---|---|---|---|
| 1777738663 | 25° C | 29% | 1024.4 hPa | - | - | - | - |
| 1777737705 | 26.67° C | 26% | 1023.8 hPa | - | - | - | - |
| 1777736747 | 27.22° C | 25% | 1024.1 hPa | - | - | - | - |
| 1777735789 | 29.44° C | 22% | 1023.2 hPa | - | - | - | - |
| 1777734831 | 27.78° C | 24% | 1024.1 hPa | - | - | - | - |
| 1777733873 | 29.44° C | 22% | 1023.3 hPa | - | - | - | - |
| 1777732915 | 26.11° C | 24% | 1025.1 hPa | - | - | - | - |
| 1777731957 | 26.11° C | 24% | 1025 hPa | - | - | - | - |
| 1777731000 | 27.78° C | 22% | 1024.6 hPa | - | - | - | - |
| 1777730048 | 26.11° C | 25% | 1025.1 hPa | - | - | - | - |
| 1777730041 | 26.11° C | 25% | 1025.1 hPa | - | - | - | - |
| 1777729083 | 26.11° C | 25% | 1025.3 hPa | - | - | - | - |
| 1777728125 | 26.67° C | 25% | 1025.3 hPa | - | - | - | - |
| 1777727167 | 27.22° C | 24% | 1025.2 hPa | - | - | - | - |
| 1777726209 | 27.22° C | 25% | 1025.2 hPa | - | - | - | - |
| 1777725252 | 28.33° C | 24% | 1024.9 hPa | - | - | - | - |
| 1777724293 | 25.56° C | 25% | 1026.5 hPa | - | - | - | - |
| 1777723335 | 25.56° C | 25% | 1026.8 hPa | - | - | - | - |
| 1777722377 | 25° C | 25% | 1026.9 hPa | - | - | - | - |
| 1777721419 | 25° C | 28% | 1027 hPa | - | - | - | - |
| 1777720461 | 26.67° C | 25% | 1026.2 hPa | - | - | - | - |
| 1777719503 | 22.22° C | 29% | 1028.5 hPa | - | - | - | - |
| 1777718545 | 22.22° C | 32% | 1028.2 hPa | - | - | - | - |
| 1777717588 | 21.67° C | 33% | 1028.3 hPa | - | - | - | - |
| 1777716629 | 21.67° C | 36% | 1028.3 hPa | - | - | - | - |
* Rain since midnight (hover to see other rain measurements)
** Current wind speed in m/s (hover to see current wind gust speed)